createdAt,value
2023-04-24T00:01:20.867Z,71.14
2023-04-24T00:03:49.794Z,71.16
2023-04-24T00:06:18.720Z,71.65
2023-04-24T00:08:47.279Z,69.57
2023-04-24T00:11:15.985Z,72.76
2023-04-24T00:13:44.663Z,72.31
2023-04-24T00:16:13.363Z,71.24
2023-04-24T00:18:42.576Z,71.73
2023-04-24T00:21:11.385Z,72.15
2023-04-24T00:23:40.253Z,73.25
2023-04-24T00:26:09.137Z,73.41
2023-04-24T00:28:37.876Z,74.18
2023-04-24T00:31:06.588Z,75.81
2023-04-24T00:33:35.258Z,74.52
2023-04-24T00:36:05.010Z,75.15
2023-04-24T00:38:33.643Z,77.05
2023-04-24T00:41:02.352Z,74.75
2023-04-24T00:43:31.039Z,73.90
2023-04-24T00:46:01.958Z,74.31
2023-04-24T00:48:30.737Z,74.72
2023-04-24T00:50:59.878Z,78.87
2023-04-24T00:53:28.561Z,80.94
2023-04-24T00:55:57.891Z,82.00
2023-04-24T00:58:30.140Z,76.95
2023-04-24T01:00:59.168Z,76.15
2023-04-24T01:03:31.832Z,75.39
2023-04-24T01:06:00.806Z,75.62
2023-04-24T01:08:31.076Z,74.99
2023-04-24T01:11:00.389Z,73.83
2023-04-24T01:13:30.802Z,74.36
2023-04-24T01:16:02.263Z,75.43
2023-04-24T01:18:34.711Z,76.86
2023-04-24T01:21:05.859Z,78.19
2023-04-24T01:23:34.587Z,79.61
2023-04-24T01:26:03.565Z,82.85
2023-04-24T01:28:33.758Z,82.20
2023-04-24T01:31:05.400Z,86.01
2023-04-24T01:33:34.205Z,90.63
2023-04-24T01:36:03.398Z,93.65
2023-04-24T01:38:32.111Z,98.44
2023-04-24T01:41:01.478Z,99.68
2023-04-24T01:43:30.743Z,100.00
2023-04-24T01:45:59.447Z,100.00
2023-04-24T01:48:28.933Z,100.00
2023-04-24T01:50:58.885Z,100.00
2023-04-24T01:53:27.493Z,100.00
2023-04-24T01:55:56.433Z,100.00
2023-04-24T01:58:25.833Z,100.00
2023-04-24T02:00:54.559Z,100.00
2023-04-24T02:03:23.535Z,100.00
2023-04-24T02:05:52.445Z,100.00
2023-04-24T02:08:21.079Z,100.00
2023-04-24T02:10:49.939Z,100.00
2023-04-24T02:13:20.526Z,100.00
2023-04-24T02:15:49.248Z,100.00
2023-04-24T02:18:17.976Z,100.00
2023-04-24T02:20:46.719Z,100.00
2023-04-24T02:23:15.794Z,100.00
2023-04-24T02:25:44.409Z,100.00
2023-04-24T02:28:13.013Z,100.00
2023-04-24T02:30:41.710Z,100.00
2023-04-24T02:33:10.350Z,100.00
2023-04-24T02:35:39.101Z,100.00
2023-04-24T02:38:08.000Z,100.00
2023-04-24T02:40:36.604Z,100.00
2023-04-24T02:43:05.291Z,100.00
2023-04-24T02:45:35.751Z,100.00
2023-04-24T02:48:07.430Z,100.00
2023-04-24T02:50:36.291Z,100.00
2023-04-24T02:53:04.930Z,100.00
2023-04-24T02:55:33.526Z,100.00
2023-04-24T02:58:02.211Z,100.00
2023-04-24T03:00:31.311Z,100.00
2023-04-24T03:03:00.098Z,100.00
2023-04-24T03:05:28.758Z,100.00
2023-04-24T03:07:57.569Z,100.00
2023-04-24T03:10:29.151Z,100.00
2023-04-24T03:12:57.760Z,100.00
2023-04-24T03:15:28.968Z,100.00
2023-04-24T03:17:57.700Z,100.00
2023-04-24T03:20:26.867Z,100.00
2023-04-24T03:22:55.438Z,100.00
2023-04-24T03:25:24.133Z,100.00
2023-04-24T03:27:52.740Z,100.00
2023-04-24T03:30:21.535Z,100.00
2023-04-24T03:32:50.362Z,100.00
2023-04-24T03:35:18.950Z,100.00
2023-04-24T03:37:49.134Z,100.00
2023-04-24T03:40:17.845Z,100.00
2023-04-24T03:42:46.457Z,100.00
2023-04-24T03:45:15.699Z,100.00
2023-04-24T03:47:44.522Z,100.00
2023-04-24T03:50:13.338Z,100.00
2023-04-24T03:52:41.973Z,100.00
2023-04-24T03:55:12.543Z,100.00
2023-04-24T03:57:42.601Z,100.00
2023-04-24T04:00:12.408Z,100.00
2023-04-24T04:02:41.158Z,100.00
2023-04-24T04:05:10.055Z,100.00
2023-04-24T04:07:38.800Z,100.00
2023-04-24T04:10:08.728Z,100.00
2023-04-24T04:12:37.455Z,100.00
2023-04-24T04:15:07.856Z,100.00
2023-04-24T04:17:36.684Z,100.00
2023-04-24T04:20:07.522Z,100.00
2023-04-24T04:22:36.124Z,100.00
2023-04-24T04:25:05.573Z,100.00
2023-04-24T04:27:34.774Z,100.00
2023-04-24T04:30:07.531Z,100.00
2023-04-24T04:32:36.976Z,94.62
2023-04-24T04:35:06.475Z,92.91
2023-04-24T04:37:35.916Z,85.88
2023-04-24T04:40:08.516Z,84.89
2023-04-24T04:42:37.174Z,82.70
2023-04-24T04:45:06.141Z,81.62
2023-04-24T04:47:35.154Z,81.22
2023-04-24T04:50:04.936Z,78.17
2023-04-24T04:52:33.856Z,78.21
2023-04-24T04:55:02.519Z,74.75
2023-04-24T04:57:31.257Z,73.46
2023-04-24T04:59:59.820Z,73.54
2023-04-24T05:02:28.668Z,72.11
2023-04-24T05:05:01.181Z,71.23
2023-04-24T05:07:30.689Z,70.60
2023-04-24T05:10:03.906Z,69.45
2023-04-24T05:12:32.482Z,67.69
2023-04-24T05:15:06.384Z,67.56
2023-04-24T05:17:38.526Z,69.23
2023-04-24T05:20:08.241Z,67.62
2023-04-24T05:22:38.578Z,66.40
2023-04-24T05:25:08.843Z,68.59
2023-04-24T05:27:39.063Z,75.14
2023-04-24T05:30:08.756Z,71.07
2023-04-24T05:32:39.031Z,69.62
2023-04-24T05:35:12.087Z,70.95
2023-04-24T05:37:40.899Z,69.72
2023-04-24T05:40:16.939Z,66.96
2023-04-24T05:42:52.076Z,63.62
2023-04-24T05:45:33.817Z,63.77
2023-04-24T05:48:06.627Z,65.73
2023-04-24T05:50:36.995Z,64.59
2023-04-24T05:53:08.453Z,64.22
2023-04-24T05:55:41.263Z,64.31
2023-04-24T05:58:13.120Z,63.02
2023-04-24T06:00:47.559Z,63.89
2023-04-24T06:03:16.853Z,63.90
2023-04-24T06:05:46.164Z,64.16
2023-04-24T06:08:14.829Z,63.77
2023-04-24T06:10:43.521Z,64.54
2023-04-24T06:13:15.068Z,64.62
2023-04-24T06:15:44.689Z,65.31
2023-04-24T06:18:15.650Z,64.97
2023-04-24T06:20:44.930Z,65.03
2023-04-24T06:23:13.595Z,65.11
2023-04-24T06:28:31.373Z,60.61
2023-04-24T06:31:06.686Z,57.89
2023-04-24T06:33:41.477Z,56.30
2023-04-24T06:36:14.795Z,56.38
2023-04-24T06:38:43.631Z,57.03
2023-04-24T06:41:14.519Z,55.27
2023-04-24T06:43:43.386Z,56.47
2023-04-24T06:46:16.000Z,57.88
2023-04-24T06:48:45.650Z,57.75
2023-04-24T06:51:22.536Z,58.08
2023-04-24T06:53:52.856Z,60.54
2023-04-24T06:56:27.098Z,57.64
2023-04-24T06:58:57.200Z,57.54
2023-04-24T07:01:35.418Z,59.76
2023-04-24T07:04:10.014Z,57.76
2023-04-24T07:06:41.610Z,55.36
2023-04-24T07:09:13.462Z,55.15
2023-04-24T07:11:46.417Z,54.37
2023-04-24T07:14:20.779Z,53.74
2023-04-24T07:16:51.666Z,53.23
2023-04-24T07:19:23.222Z,53.20
2023-04-24T07:21:56.625Z,52.17
2023-04-24T07:24:26.884Z,51.95
2023-04-24T07:27:02.452Z,50.06
2023-04-24T07:29:39.299Z,50.33
2023-04-24T07:32:06.613Z,50.92
2023-04-24T07:34:39.886Z,51.62
2023-04-24T07:37:13.248Z,52.16
2023-04-24T07:39:46.420Z,52.47
2023-04-24T07:42:27.809Z,52.44
2023-04-24T07:44:54.122Z,53.01
2023-04-24T07:47:22.830Z,54.20
2023-04-24T07:49:57.295Z,54.43
2023-04-24T07:52:29.467Z,53.22
2023-04-24T07:55:01.578Z,52.88
2023-04-24T07:57:33.529Z,53.11
2023-04-24T08:00:06.324Z,52.75
2023-04-24T08:02:39.341Z,51.29
2023-04-24T08:05:24.852Z,50.75
2023-04-24T08:07:55.026Z,50.99
2023-04-24T08:10:25.503Z,51.99
2023-04-24T08:13:02.759Z,52.84
2023-04-24T08:15:40.237Z,52.78
2023-04-24T08:19:40.538Z,52.19
2023-04-24T08:21:10.860Z,51.42
2023-04-24T08:23:49.154Z,51.64
2023-04-24T08:26:32.475Z,51.32
2023-04-24T08:29:03.057Z,49.88
2023-04-24T08:31:33.668Z,47.97
2023-04-24T08:34:12.147Z,47.85
2023-04-24T08:40:02.772Z,48.54
2023-04-24T08:42:45.917Z,47.78
2023-04-24T08:45:18.981Z,47.31
2023-04-24T08:47:49.664Z,47.24
2023-04-24T08:50:26.138Z,47.14
2023-04-24T08:53:04.572Z,47.40
2023-04-24T08:55:48.668Z,47.94
2023-04-24T08:58:21.171Z,46.12
2023-04-24T09:01:08.257Z,46.13
2023-04-24T09:03:33.973Z,44.89
2023-04-24T09:06:11.076Z,44.41
2023-04-24T09:08:48.656Z,44.78
2023-04-24T09:11:28.206Z,43.93
2023-04-24T09:14:02.575Z,44.13
2023-04-24T09:16:37.524Z,42.80
2023-04-24T09:19:14.957Z,42.27
2023-04-24T09:25:23.440Z,41.20
2023-04-24T09:46:01.611Z,39.90
2023-04-24T09:48:45.290Z,40.53
2023-04-24T09:51:22.913Z,40.79
2023-04-24T09:53:54.955Z,41.07
2023-04-24T09:56:30.703Z,39.94
2023-04-24T09:59:11.386Z,41.97
2023-04-24T10:02:03.154Z,39.58
2023-04-24T10:04:53.294Z,39.57
2023-04-24T10:07:12.879Z,38.71
2023-04-24T10:09:52.659Z,39.87
2023-04-24T10:12:24.384Z,40.16
2023-04-24T10:15:02.875Z,39.77
2023-04-24T10:33:28.093Z,39.05
2023-04-24T10:35:59.547Z,38.35
2023-04-24T10:38:35.766Z,38.23
2023-04-24T10:41:21.047Z,37.37
2023-04-24T10:43:52.390Z,36.42
2023-04-24T10:46:31.058Z,36.11
2023-04-24T10:49:03.827Z,35.86
2023-04-24T10:51:55.636Z,36.66
2023-04-24T10:54:54.438Z,36.35
2023-04-24T10:57:45.245Z,36.08
2023-04-24T11:00:47.251Z,36.26
2023-04-24T11:03:39.244Z,36.53
2023-04-24T11:06:10.268Z,38.45
2023-04-24T11:08:54.507Z,38.81
2023-04-24T11:11:27.365Z,39.50
2023-04-24T11:14:17.753Z,39.32
2023-04-24T11:16:55.060Z,39.22
2023-04-24T11:19:34.224Z,39.95
2023-04-24T11:22:09.841Z,41.04
2023-04-24T11:24:46.555Z,41.91
2023-04-24T11:27:23.389Z,42.07
2023-04-24T11:30:08.348Z,42.78
2023-04-24T11:32:40.123Z,53.63
2023-04-24T11:35:33.343Z,77.74
2023-04-24T11:40:38.819Z,90.79
2023-04-24T11:43:13.673Z,90.04
2023-04-24T11:45:45.557Z,87.05
2023-04-24T11:48:44.137Z,72.77
2023-04-24T11:51:05.641Z,60.87
2023-04-24T11:53:41.494Z,59.78
2023-04-24T11:56:12.277Z,56.48
2023-04-24T12:02:14.574Z,49.39
2023-04-24T12:04:45.094Z,50.16
2023-04-24T12:07:15.943Z,44.31
2023-04-24T12:09:50.216Z,43.28
2023-04-24T12:12:27.032Z,42.82
2023-04-24T12:14:58.739Z,43.03
2023-04-24T12:17:34.107Z,43.46
2023-04-24T12:20:06.479Z,42.27
2023-04-24T12:22:57.447Z,39.93
2023-04-24T12:25:31.621Z,40.44
2023-04-24T12:28:10.890Z,40.34
2023-04-24T12:30:52.521Z,39.14
2023-04-24T12:33:25.701Z,41.60
2023-04-24T12:35:56.554Z,39.99
2023-04-24T12:41:13.148Z,39.26
2023-04-24T12:46:51.760Z,39.55
2023-04-24T12:49:51.734Z,38.73
2023-04-24T12:52:31.409Z,38.53
2023-04-24T12:55:13.953Z,38.58
2023-04-24T12:57:48.875Z,38.82
2023-04-24T13:00:24.112Z,36.91
2023-04-24T13:02:52.938Z,37.33
2023-04-24T13:05:24.131Z,38.15
2023-04-24T13:08:12.747Z,38.12
2023-04-24T13:10:42.317Z,37.49
2023-04-24T13:13:15.385Z,38.04
2023-04-24T13:16:03.086Z,38.32
2023-04-24T13:18:33.077Z,38.55
2023-04-24T13:21:03.085Z,38.64
2023-04-24T13:23:38.277Z,37.98
2023-04-24T13:26:08.672Z,37.24
2023-04-24T13:28:37.271Z,36.88
2023-04-24T13:31:08.163Z,35.64
2023-04-24T13:33:36.829Z,35.03
2023-04-24T13:36:09.292Z,34.74
2023-04-24T13:38:37.832Z,35.68
2023-04-24T13:41:07.907Z,35.82
2023-04-24T13:43:36.493Z,35.17
2023-04-24T13:46:05.379Z,35.15
2023-04-24T13:48:34.039Z,35.02
2023-04-24T13:51:04.718Z,34.36
2023-04-24T13:53:42.911Z,34.40
2023-04-24T13:56:13.273Z,34.58
2023-04-24T13:58:42.037Z,34.26
2023-04-24T14:01:14.900Z,35.71
2023-04-24T14:03:46.642Z,36.71
2023-04-24T14:06:15.554Z,37.93
2023-04-24T14:08:44.293Z,39.15
2023-04-24T14:11:17.066Z,39.15
2023-04-24T14:13:47.002Z,38.81
2023-04-24T14:16:17.661Z,37.51
2023-04-24T14:18:46.513Z,38.01
2023-04-24T14:21:18.305Z,38.42
2023-04-24T14:23:49.582Z,38.93
2023-04-24T14:26:18.369Z,38.90
2023-04-24T14:28:51.094Z,39.71
2023-04-24T14:31:19.919Z,38.80
2023-04-24T14:33:48.742Z,40.72
2023-04-24T14:36:20.856Z,41.85
2023-04-24T14:38:49.403Z,44.18
2023-04-24T14:41:21.056Z,48.11
2023-04-24T14:43:50.089Z,47.86
2023-04-24T14:46:18.815Z,47.66
2023-04-24T14:48:52.054Z,47.40
2023-04-24T14:51:20.751Z,46.97
2023-04-24T14:53:49.428Z,48.03
2023-04-24T14:56:18.081Z,47.84
2023-04-24T14:58:46.848Z,47.90
2023-04-24T15:01:17.737Z,46.79
2023-04-24T15:03:47.378Z,46.36
2023-04-24T15:06:16.521Z,46.27
2023-04-24T15:08:50.220Z,47.28
2023-04-24T15:11:18.610Z,48.08
2023-04-24T15:13:47.804Z,49.13
2023-04-24T15:16:17.002Z,50.74
2023-04-24T15:18:46.040Z,51.99
2023-04-24T15:21:14.685Z,52.62
2023-04-24T15:23:43.398Z,52.95
2023-04-24T15:26:11.974Z,53.64
2023-04-24T15:28:40.762Z,55.10
2023-04-24T15:31:09.814Z,55.85
2023-04-24T15:33:38.494Z,56.72
2023-04-24T15:36:09.570Z,56.93
2023-04-24T15:38:38.736Z,56.92
2023-04-24T15:41:10.643Z,57.36
2023-04-24T15:43:41.101Z,57.33
2023-04-24T15:46:14.585Z,57.69
2023-04-24T15:48:45.409Z,57.59
2023-04-24T15:51:14.204Z,57.98
2023-04-24T15:53:42.965Z,58.85
2023-04-24T15:56:11.677Z,60.28
2023-04-24T15:58:40.754Z,63.96
2023-04-24T16:01:09.598Z,67.46
2023-04-24T16:03:38.994Z,69.24
2023-04-24T16:06:08.175Z,70.96
2023-04-24T16:08:37.321Z,75.01
2023-04-24T16:11:06.371Z,80.28
2023-04-24T16:13:35.399Z,85.56
2023-04-24T16:16:09.039Z,97.90
2023-04-24T16:18:38.046Z,100.00
2023-04-24T16:21:08.590Z,100.00
2023-04-24T16:23:55.124Z,100.00
2023-04-24T16:26:24.295Z,100.00
2023-04-24T16:28:53.349Z,100.00
2023-04-24T16:31:22.465Z,100.00
2023-04-24T16:33:51.571Z,100.00
2023-04-24T16:36:22.359Z,100.00
2023-04-24T16:38:51.461Z,100.00
2023-04-24T16:41:20.762Z,100.00
2023-04-24T16:44:02.026Z,100.00
2023-04-24T16:46:31.500Z,100.00
2023-04-24T16:49:00.701Z,100.00
2023-04-24T16:51:29.787Z,100.00
2023-04-24T16:53:58.903Z,100.00
2023-04-24T16:56:29.614Z,100.00
2023-04-24T16:59:00.138Z,100.00
2023-04-24T17:01:29.780Z,100.00
2023-04-24T17:03:59.111Z,100.00
2023-04-24T17:06:35.412Z,100.00
2023-04-24T17:09:05.121Z,100.00
2023-04-24T17:11:35.633Z,100.00
2023-04-24T17:14:07.545Z,100.00
2023-04-24T17:16:38.724Z,100.00
2023-04-24T17:19:08.485Z,100.00
2023-04-24T17:21:37.645Z,100.00
2023-04-24T17:24:07.139Z,100.00
2023-04-24T17:26:36.183Z,100.00
2023-04-24T17:29:06.812Z,100.00
2023-04-24T17:31:40.223Z,100.00
2023-04-24T17:34:13.401Z,100.00
2023-04-24T17:36:44.151Z,100.00
2023-04-24T17:39:17.262Z,100.00
2023-04-24T17:41:48.787Z,100.00
2023-04-24T17:44:17.627Z,100.00
2023-04-24T17:46:48.103Z,100.00
2023-04-24T17:49:18.923Z,100.00
2023-04-24T17:51:50.684Z,100.00
2023-04-24T17:54:19.573Z,100.00
2023-04-24T17:56:48.858Z,100.00
2023-04-24T17:59:17.665Z,100.00
2023-04-24T18:01:51.285Z,100.00
2023-04-24T18:04:21.818Z,100.00
2023-04-24T18:06:52.482Z,100.00
2023-04-24T18:12:53.247Z,100.00
2023-04-24T18:15:22.644Z,100.00
2023-04-24T18:17:51.689Z,100.00
2023-04-24T18:20:20.858Z,100.00
2023-04-24T18:22:51.215Z,100.00
2023-04-24T18:25:21.567Z,100.00
2023-04-24T18:27:50.261Z,100.00
2023-04-24T18:30:18.985Z,100.00
2023-04-24T18:33:06.589Z,100.00
2023-04-24T18:35:39.150Z,100.00
2023-04-24T18:38:18.714Z,100.00
2023-04-24T18:40:47.519Z,100.00
2023-04-24T18:43:16.194Z,100.00
2023-04-24T18:45:46.709Z,100.00
2023-04-24T18:48:15.504Z,100.00
2023-04-24T18:51:25.452Z,100.00
2023-04-24T18:54:02.112Z,100.00
2023-04-24T19:03:23.702Z,100.00
2023-04-24T19:05:57.000Z,100.00
2023-04-24T19:08:25.894Z,100.00
2023-04-24T19:11:13.755Z,100.00
2023-04-24T19:13:59.515Z,100.00
2023-04-24T19:16:28.270Z,100.00
2023-04-24T19:19:20.598Z,100.00
2023-04-24T19:25:37.613Z,100.00
2023-04-24T19:48:23.617Z,100.00
2023-04-24T19:51:01.321Z,100.00
2023-04-24T20:00:11.083Z,100.00
2023-04-24T20:02:42.802Z,100.00
2023-04-24T20:05:14.713Z,100.00
2023-04-24T20:07:45.200Z,100.00
2023-04-24T20:10:15.164Z,100.00
2023-04-24T20:12:46.049Z,100.00
2023-04-24T20:15:14.939Z,100.00
2023-04-24T20:17:43.784Z,100.00
2023-04-24T20:20:29.418Z,100.00
2023-04-24T20:23:03.411Z,100.00
2023-04-24T20:52:11.282Z,100.00
2023-04-24T20:54:42.425Z,100.00
2023-04-24T20:57:18.008Z,100.00
2023-04-24T21:03:27.870Z,100.00
2023-04-24T21:05:56.863Z,100.00
2023-04-24T21:08:25.449Z,100.00
2023-04-24T21:10:54.173Z,100.00
2023-04-24T21:13:22.932Z,100.00
2023-04-24T21:15:52.365Z,100.00
2023-04-24T21:18:21.543Z,100.00
2023-04-24T21:20:51.842Z,100.00
2023-04-24T21:23:22.109Z,100.00
2023-04-24T21:25:50.922Z,100.00
2023-04-24T21:28:20.049Z,100.00
2023-04-24T21:30:48.811Z,100.00
2023-04-24T21:33:17.797Z,100.00
2023-04-24T21:35:46.436Z,100.00
2023-04-24T21:38:15.553Z,100.00
2023-04-24T21:40:44.138Z,100.00
2023-04-24T21:43:12.940Z,100.00
2023-04-24T21:45:41.720Z,100.00
2023-04-24T21:48:10.909Z,100.00
2023-04-24T21:50:39.701Z,100.00
2023-04-24T21:53:08.398Z,100.00
2023-04-24T21:55:40.309Z,100.00
2023-04-24T21:58:09.052Z,100.00
2023-04-24T22:00:37.785Z,100.00
2023-04-24T22:03:06.640Z,100.00
2023-04-24T22:05:35.432Z,100.00
2023-04-24T22:08:04.166Z,100.00
2023-04-24T22:10:32.866Z,100.00
2023-04-24T22:13:01.674Z,100.00
2023-04-24T22:15:31.192Z,100.00
2023-04-24T22:18:01.234Z,100.00
2023-04-24T22:20:30.861Z,100.00
2023-04-24T22:22:59.552Z,100.00
2023-04-24T22:25:28.194Z,100.00
2023-04-24T22:27:57.055Z,100.00
2023-04-24T22:30:25.657Z,100.00
2023-04-24T22:32:54.562Z,100.00
2023-04-24T22:35:23.352Z,100.00
2023-04-24T22:37:56.730Z,100.00
2023-04-24T22:40:26.355Z,100.00
2023-04-24T22:42:55.128Z,100.00
2023-04-24T22:45:23.882Z,100.00
2023-04-24T22:47:52.828Z,100.00
2023-04-24T22:50:22.151Z,100.00
2023-04-24T22:52:50.886Z,100.00
2023-04-24T22:55:19.712Z,100.00
2023-04-24T22:57:50.247Z,100.00
2023-04-24T23:00:20.043Z,100.00
2023-04-24T23:02:50.675Z,100.00
2023-04-24T23:05:20.999Z,100.00
2023-04-24T23:07:50.003Z,100.00
2023-04-24T23:10:21.462Z,100.00
2023-04-24T23:12:51.154Z,100.00
2023-04-24T23:15:21.324Z,100.00
2023-04-24T23:17:50.099Z,100.00
2023-04-24T23:20:19.052Z,100.00
2023-04-24T23:22:47.815Z,100.00
2023-04-24T23:25:16.646Z,100.00
2023-04-24T23:27:45.457Z,100.00
2023-04-24T23:30:14.252Z,100.00
2023-04-24T23:32:44.448Z,100.00
2023-04-24T23:35:13.257Z,100.00
2023-04-24T23:37:42.111Z,100.00
2023-04-24T23:40:11.476Z,100.00
2023-04-24T23:42:40.440Z,100.00
2023-04-24T23:45:13.973Z,100.00
2023-04-24T23:47:43.253Z,100.00
2023-04-24T23:50:12.274Z,100.00
2023-04-24T23:52:44.048Z,100.00
2023-04-24T23:55:12.817Z,100.00
2023-04-24T23:57:41.425Z,100.00
